This is the latest recevied weather packets stored in our database for station/object SP7QPD-1. If no packets are shown the sender has not sent any weather packets the latest 1 day(s).
| Time | Temp. | Humidity | Pressure | Rain* | Wind** | Luminosity | Snow |
|---|---|---|---|---|---|---|---|
| 1778091812 | 20° C | 55% | 1002.4 hPa | 0 mm | - | - | - |
| 1778091212 | 20° C | 54% | 1002.5 hPa | 0 mm | - | - | - |
| 1778090612 | 20.56° C | 53% | 1002.4 hPa | 0 mm | - | - | - |
| 1778090012 | 21.11° C | 53% | 1002.2 hPa | 0 mm | - | - | - |
| 1778084611 | 23.33° C | 46% | 1002.2 hPa | 0 mm | - | - | - |
| 1778084011 | 23.89° C | 45% | 1002.4 hPa | 0 mm | - | - | - |
| 1778083411 | 23.89° C | 45% | 1002.4 hPa | 0 mm | - | - | - |
| 1778082811 | 23.89° C | 44% | 1002.4 hPa | 0 mm | - | - | - |
| 1778077410 | 25.56° C | 43% | 1002.6 hPa | 0 mm | - | - | - |
| 1778076810 | 25.56° C | 43% | 1002.7 hPa | 0 mm | - | - | - |
| 1778076210 | 25° C | 43% | 1002.7 hPa | 0 mm | - | - | - |
| 1778075610 | 25.56° C | 42% | 1002.5 hPa | 0 mm | - | - | - |
| 1778070809 | 25° C | 44% | 1002.9 hPa | 0 mm | - | - | - |
| 1778069609 | 24.44° C | 46% | 1003 hPa | 0 mm | - | - | - |
| 1778064808 | 22.78° C | 51% | 1003.2 hPa | 0 mm | - | - | - |
| 1778064208 | 22.78° C | 51% | 1003.1 hPa | 0 mm | - | - | - |
| 1778063608 | 22.78° C | 50% | 1003.1 hPa | 0 mm | - | - | - |
| 1778063008 | 22.78° C | 50% | 1003 hPa | 0 mm | - | - | - |
| 1778062408 | 22.78° C | 50% | 1003.2 hPa | 0 mm | - | - | - |
| 1778061808 | 22.22° C | 51% | 1003 hPa | 0 mm | - | - | - |
| 1778060607 | 21.67° C | 53% | 1003 hPa | 0 mm | - | - | - |
| 1778058807 | 22.22° C | 53% | 1003.1 hPa | 0 mm | - | - | - |
| 1778058207 | 21.67° C | 54% | 1002.9 hPa | 0 mm | - | - | - |
| 1778057607 | 21.67° C | 54% | 1002.8 hPa | 0 mm | - | - | - |
| 1778057007 | 21.11° C | 55% | 1002.9 hPa | 0 mm | - | - | - |
* Rain latest hour (hover to see other rain measurements)
** Current wind speed in m/s (hover to see current wind gust speed)